createdAt,value
2023-02-12T00:01:10.966Z,71.12
2023-02-12T00:03:42.046Z,70.89
2023-02-12T00:06:13.521Z,72.63
2023-02-12T00:08:43.077Z,72.45
2023-02-12T00:11:13.964Z,71.89
2023-02-12T00:13:43.967Z,71.32
2023-02-12T00:16:14.790Z,71.74
2023-02-12T00:18:45.103Z,71.44
2023-02-12T00:21:14.215Z,71.84
2023-02-12T00:23:42.544Z,71.84
2023-02-12T00:26:12.515Z,71.71
2023-02-12T00:28:46.801Z,71.22
2023-02-12T00:31:17.623Z,71.22
2023-02-12T00:33:47.508Z,71.22
2023-02-12T00:36:17.563Z,71.19
2023-02-12T00:38:46.800Z,71.12
2023-02-12T00:41:15.443Z,71.55
2023-02-12T00:43:43.838Z,71.28
2023-02-12T00:46:12.922Z,71.74
2023-02-12T00:48:41.360Z,72.18
2023-02-12T00:51:11.050Z,71.63
2023-02-12T00:53:39.403Z,71.76
2023-02-12T00:56:08.877Z,71.40
2023-02-12T00:58:37.393Z,71.00
2023-02-12T01:01:08.262Z,71.39
2023-02-12T01:03:38.572Z,71.41
2023-02-12T01:06:07.225Z,71.22
2023-02-12T01:08:37.029Z,70.75
2023-02-12T01:11:06.870Z,70.82
2023-02-12T01:13:36.464Z,71.58
2023-02-12T01:16:09.232Z,71.48
2023-02-12T01:18:39.176Z,71.59
2023-02-12T01:21:14.874Z,72.19
2023-02-12T01:23:45.592Z,71.42
2023-02-12T01:26:15.043Z,71.26
2023-02-12T01:28:45.080Z,71.16
2023-02-12T01:31:15.723Z,71.67
2023-02-12T01:33:44.707Z,71.74
2023-02-12T01:36:12.989Z,71.10
2023-02-12T01:38:41.498Z,70.92
2023-02-12T01:41:13.460Z,72.30
2023-02-12T01:43:41.782Z,72.27
2023-02-12T01:46:14.141Z,71.77
2023-02-12T01:48:45.534Z,72.69
2023-02-12T01:51:17.540Z,71.89
2023-02-12T01:53:51.415Z,72.22
2023-02-12T01:56:21.611Z,72.16
2023-02-12T01:58:52.947Z,72.10
2023-02-12T02:01:25.779Z,71.90
2023-02-12T02:03:57.146Z,71.93
2023-02-12T02:06:29.147Z,71.72
2023-02-12T02:08:58.824Z,71.83
2023-02-12T02:11:45.948Z,72.19
2023-02-12T02:14:31.608Z,71.77
2023-02-12T02:17:30.949Z,71.57
2023-02-12T02:20:31.736Z,71.56
2023-02-12T02:23:18.265Z,71.67
2023-02-12T02:26:23.153Z,71.69
2023-02-12T02:29:06.113Z,72.01
2023-02-12T02:31:41.840Z,71.87
2023-02-12T02:34:18.182Z,71.66
2023-02-12T02:37:00.264Z,71.58
2023-02-12T02:39:38.706Z,71.67
2023-02-12T02:42:11.522Z,71.69
2023-02-12T02:44:45.056Z,71.77
2023-02-12T02:47:17.263Z,71.78
2023-02-12T02:49:51.245Z,71.91
2023-02-12T02:52:25.560Z,71.88
2023-02-12T02:54:57.409Z,72.12
2023-02-12T02:57:29.715Z,71.77
2023-02-12T03:00:04.273Z,71.97
2023-02-12T03:02:38.081Z,71.79
2023-02-12T03:05:11.988Z,71.80
2023-02-12T03:07:46.548Z,71.84
2023-02-12T03:10:18.400Z,71.71
2023-02-12T03:12:53.159Z,71.64
2023-02-12T03:15:25.688Z,71.77
2023-02-12T03:17:56.300Z,71.95
2023-02-12T03:20:29.415Z,71.81
2023-02-12T03:23:02.153Z,71.81
2023-02-12T03:25:36.265Z,71.98
2023-02-12T03:28:10.293Z,71.80
2023-02-12T03:30:45.664Z,72.09
2023-02-12T03:33:26.413Z,71.77
2023-02-12T03:36:02.479Z,71.81
2023-02-12T03:38:38.226Z,72.39
2023-02-12T03:41:10.788Z,71.87
2023-02-12T03:43:50.412Z,71.87
2023-02-12T03:46:23.780Z,72.01
2023-02-12T03:49:02.113Z,71.73
2023-02-12T03:51:35.896Z,72.03
2023-02-12T03:54:05.406Z,71.48
2023-02-12T03:56:39.091Z,72.29
2023-02-12T03:59:07.653Z,72.05
2023-02-12T04:01:36.894Z,72.51
2023-02-12T04:04:08.264Z,73.26
2023-02-12T04:06:37.135Z,72.62
2023-02-12T04:09:07.649Z,72.66
2023-02-12T04:11:48.747Z,72.75
2023-02-12T04:14:25.851Z,72.17
2023-02-12T04:17:04.533Z,72.39
2023-02-12T04:19:44.406Z,72.16
2023-02-12T04:22:25.925Z,71.89
2023-02-12T04:25:03.100Z,72.92
2023-02-12T04:27:38.434Z,73.31
2023-02-12T04:30:15.744Z,72.88
2023-02-12T04:32:48.417Z,71.76
2023-02-12T04:35:24.195Z,72.37
2023-02-12T04:37:58.536Z,72.71
2023-02-12T04:40:27.780Z,72.25
2023-02-12T04:42:56.156Z,72.53
2023-02-12T04:45:27.242Z,72.50
2023-02-12T04:47:55.515Z,72.67
2023-02-12T04:50:25.342Z,72.16
2023-02-12T04:52:53.601Z,72.18
2023-02-12T04:55:21.821Z,71.94
2023-02-12T04:57:50.045Z,71.91
2023-02-12T05:00:19.142Z,71.91
2023-02-12T05:02:47.385Z,72.25
2023-02-12T05:05:15.874Z,72.30
2023-02-12T05:07:45.511Z,72.00
2023-02-12T05:10:14.376Z,72.21
2023-02-12T05:12:42.589Z,72.21
2023-02-12T05:15:11.362Z,71.88
2023-02-12T05:17:39.652Z,71.87
2023-02-12T05:20:09.022Z,72.28
2023-02-12T05:22:37.384Z,71.71
2023-02-12T05:25:07.638Z,72.67
2023-02-12T05:27:35.857Z,72.47
2023-02-12T05:30:05.505Z,72.03
2023-02-12T05:32:33.760Z,72.34
2023-02-12T05:35:02.257Z,71.88
2023-02-12T05:37:31.573Z,72.19
2023-02-12T05:39:59.855Z,72.13
2023-02-12T05:42:30.653Z,72.01
2023-02-12T05:44:58.914Z,72.64
2023-02-12T05:47:27.127Z,72.63
2023-02-12T05:49:55.338Z,72.70
2023-02-12T05:52:23.611Z,72.58
2023-02-12T05:54:51.988Z,73.03
2023-02-12T05:57:20.348Z,72.99
2023-02-12T05:59:49.919Z,72.33
2023-02-12T06:02:18.151Z,72.05
2023-02-12T06:04:48.518Z,72.25
2023-02-12T06:07:16.949Z,72.35
2023-02-12T06:09:45.436Z,71.93
2023-02-12T06:12:13.685Z,72.34
2023-02-12T06:14:42.529Z,72.68
2023-02-12T06:17:12.112Z,72.09
2023-02-12T06:19:40.372Z,72.46
2023-02-12T06:22:08.596Z,72.51
2023-02-12T06:24:37.268Z,72.81
2023-02-12T06:27:05.564Z,72.13
2023-02-12T06:29:33.792Z,71.42
2023-02-12T06:32:02.145Z,72.27
2023-02-12T06:34:31.946Z,72.19
2023-02-12T06:37:00.174Z,72.13
2023-02-12T06:39:28.397Z,71.99
2023-02-12T06:41:56.710Z,72.37
2023-02-12T06:44:24.939Z,72.35
2023-02-12T06:46:53.621Z,71.71
2023-02-12T06:49:21.927Z,72.36
2023-02-12T06:51:51.556Z,72.93
2023-02-12T06:54:20.136Z,72.31
2023-02-12T06:56:48.372Z,72.33
2023-02-12T06:59:18.237Z,72.50
2023-02-12T07:01:46.565Z,73.77
2023-02-12T07:04:15.051Z,72.13
2023-02-12T07:06:43.351Z,72.74
2023-02-12T07:09:13.040Z,72.64
2023-02-12T07:11:41.290Z,72.88
2023-02-12T07:14:14.252Z,73.29
2023-02-12T07:16:42.665Z,72.77
2023-02-12T07:19:14.531Z,72.42
2023-02-12T07:21:42.842Z,72.53
2023-02-12T07:24:13.832Z,73.12
2023-02-12T07:26:42.736Z,72.36
2023-02-12T07:29:11.448Z,72.21
2023-02-12T07:31:40.174Z,72.29
2023-02-12T07:34:08.513Z,72.16
2023-02-12T07:36:36.871Z,72.58
2023-02-12T07:39:06.286Z,73.44
2023-02-12T07:41:37.439Z,71.32
2023-02-12T07:44:07.845Z,72.86
2023-02-12T07:46:37.732Z,73.09
2023-02-12T07:49:07.653Z,72.92
2023-02-12T07:51:36.764Z,72.67
2023-02-12T07:54:06.003Z,72.23
2023-02-12T07:56:37.813Z,71.99
2023-02-12T07:59:08.622Z,72.45
2023-02-12T08:01:38.999Z,71.87
2023-02-12T08:04:10.540Z,72.26
2023-02-12T08:06:41.667Z,72.16
2023-02-12T08:09:12.900Z,72.67
2023-02-12T08:11:43.976Z,71.77
2023-02-12T08:14:13.654Z,72.50
2023-02-12T08:16:43.486Z,72.39
2023-02-12T08:19:23.988Z,72.61
2023-02-12T08:21:55.992Z,72.45
2023-02-12T08:24:24.575Z,72.33
2023-02-12T08:26:54.256Z,72.20
2023-02-12T08:29:24.824Z,72.99
2023-02-12T08:31:58.100Z,72.33
2023-02-12T08:34:27.839Z,72.80
2023-02-12T08:36:57.313Z,73.25
2023-02-12T08:39:27.398Z,73.67
2023-02-12T08:41:58.347Z,73.55
2023-02-12T08:44:27.109Z,73.07
2023-02-12T08:46:56.673Z,73.25
2023-02-12T08:49:27.167Z,72.53
2023-02-12T08:51:57.510Z,72.03
2023-02-12T08:54:27.933Z,71.43
2023-02-12T08:56:58.910Z,71.81
2023-02-12T08:59:27.761Z,70.93
2023-02-12T09:01:56.123Z,71.88
2023-02-12T09:04:26.779Z,72.79
2023-02-12T09:06:55.943Z,73.51
2023-02-12T09:09:24.368Z,72.38
2023-02-12T09:11:52.719Z,73.34
2023-02-12T09:14:25.024Z,71.71
2023-02-12T09:16:53.983Z,71.77
2023-02-12T09:19:22.355Z,74.05
2023-02-12T09:21:55.172Z,73.09
2023-02-12T09:24:24.302Z,72.97
2023-02-12T09:26:52.549Z,73.78
2023-02-12T09:29:22.176Z,71.95
2023-02-12T09:31:50.608Z,72.58
2023-02-12T09:34:18.917Z,72.81
2023-02-12T09:36:47.151Z,73.63
2023-02-12T09:39:15.424Z,72.70
2023-02-12T09:42:08.597Z,77.61
2023-02-12T09:44:45.742Z,74.25
2023-02-12T09:47:19.701Z,74.47
2023-02-12T09:50:07.004Z,73.59
2023-02-12T09:52:36.275Z,74.95
2023-02-12T09:55:05.128Z,72.80
2023-02-12T09:57:36.304Z,72.90
2023-02-12T10:00:09.287Z,71.12
2023-02-12T10:02:39.092Z,73.48
2023-02-12T10:05:15.722Z,74.33
2023-02-12T10:08:02.379Z,74.35
2023-02-12T10:10:44.761Z,73.98
2023-02-12T10:13:26.110Z,73.77
2023-02-12T10:15:59.492Z,74.40
2023-02-12T10:18:46.316Z,76.33
2023-02-12T10:21:30.013Z,73.61
2023-02-12T10:24:08.505Z,73.19
2023-02-12T10:26:40.612Z,75.03
2023-02-12T10:29:15.100Z,74.32
2023-02-12T10:31:48.527Z,74.56
2023-02-12T10:34:21.215Z,75.03
2023-02-12T10:36:52.738Z,73.35
2023-02-12T10:39:24.424Z,73.00
2023-02-12T10:41:59.785Z,73.06
2023-02-12T10:44:28.392Z,74.10
2023-02-12T10:46:58.119Z,73.73
2023-02-12T10:49:26.469Z,73.09
2023-02-12T10:52:12.746Z,74.19
2023-02-12T10:54:43.390Z,73.83
2023-02-12T10:57:19.253Z,74.11
2023-02-12T10:59:48.996Z,73.12
2023-02-12T11:02:27.130Z,73.65
2023-02-12T11:04:56.951Z,73.83
2023-02-12T11:07:26.537Z,73.07
2023-02-12T11:09:57.078Z,72.99
2023-02-12T11:12:33.633Z,73.41
2023-02-12T11:15:04.204Z,74.31
2023-02-12T11:17:36.994Z,74.33
2023-02-12T11:20:26.938Z,73.36
2023-02-12T11:22:58.117Z,74.21
2023-02-12T11:25:29.309Z,74.29
2023-02-12T11:28:03.463Z,73.39
2023-02-12T11:30:32.355Z,74.49
2023-02-12T11:33:26.058Z,71.79
2023-02-12T11:35:56.642Z,73.62
2023-02-12T11:38:31.770Z,73.02
2023-02-12T11:41:04.772Z,74.06
2023-02-12T11:43:37.325Z,73.01
2023-02-12T11:46:08.536Z,73.96
2023-02-12T11:48:40.721Z,74.06
2023-02-12T11:51:21.001Z,74.98
2023-02-12T11:53:52.295Z,73.69
2023-02-12T11:56:21.804Z,74.03
2023-02-12T11:58:51.540Z,72.35
2023-02-12T12:01:23.051Z,75.15
2023-02-12T12:03:59.963Z,74.51
2023-02-12T12:06:34.276Z,74.14
2023-02-12T12:09:08.426Z,75.07
2023-02-12T12:11:45.284Z,73.05
2023-02-12T12:14:22.321Z,73.75
2023-02-12T12:17:10.854Z,72.19
2023-02-12T12:19:54.937Z,73.48
2023-02-12T12:22:41.763Z,73.79
2023-02-12T12:25:18.653Z,72.90
2023-02-12T12:28:03.985Z,74.04
2023-02-12T12:30:53.743Z,72.16
2023-02-12T12:33:31.855Z,73.32
2023-02-12T12:36:33.104Z,73.55
2023-02-12T12:39:11.270Z,73.22
2023-02-12T12:41:49.986Z,73.70
2023-02-12T12:44:33.420Z,72.27
2023-02-12T12:47:11.765Z,72.80
2023-02-12T12:49:54.817Z,72.29
2023-02-12T12:52:47.241Z,73.84
2023-02-12T12:55:35.923Z,72.94
2023-02-12T12:58:12.917Z,74.25
2023-02-12T13:01:06.829Z,73.92
2023-02-12T13:04:14.728Z,74.09
2023-02-12T13:06:57.503Z,73.61
2023-02-12T13:09:39.189Z,73.61
2023-02-12T13:12:25.139Z,71.61
2023-02-12T13:15:00.477Z,73.31
2023-02-12T13:17:36.900Z,74.41
2023-02-12T13:20:13.260Z,72.80
2023-02-12T13:22:47.657Z,73.48
2023-02-12T13:25:25.719Z,74.74
2023-02-12T13:27:58.540Z,74.25
2023-02-12T13:30:31.531Z,74.25
2023-02-12T13:33:08.215Z,73.72
2023-02-12T13:35:42.432Z,73.15
2023-02-12T13:38:18.443Z,72.56
2023-02-12T13:40:49.664Z,74.11
2023-02-12T13:43:34.547Z,73.94
2023-02-12T13:46:09.216Z,70.80
2023-02-12T15:20:52.468Z,72.66
2023-02-12T15:23:33.517Z,73.28
2023-02-12T15:26:02.794Z,72.82
2023-02-12T15:28:35.423Z,72.34
2023-02-12T15:31:05.023Z,73.38
2023-02-12T15:33:35.876Z,73.27
2023-02-12T16:22:41.164Z,72.83
2023-02-12T16:25:17.576Z,72.60
2023-02-12T16:27:55.610Z,72.77
2023-02-12T16:30:27.789Z,72.49
2023-02-12T16:32:56.570Z,72.53
2023-02-12T16:35:29.557Z,72.70
2023-02-12T16:38:24.603Z,72.38
2023-02-12T16:41:20.844Z,73.06
2023-02-12T16:43:50.936Z,72.10
2023-02-12T16:46:22.552Z,72.69
2023-02-12T16:48:53.225Z,72.74
2023-02-12T16:51:25.488Z,72.24
2023-02-12T16:53:57.641Z,72.56
2023-02-12T16:56:28.071Z,72.06
2023-02-12T16:58:59.648Z,72.06
2023-02-12T17:01:29.839Z,72.64
2023-02-12T17:04:01.086Z,72.85
2023-02-12T17:06:31.233Z,72.07
2023-02-12T17:09:01.042Z,72.45
2023-02-12T17:11:29.969Z,72.37
2023-02-12T17:13:58.315Z,73.25
2023-02-12T17:16:31.595Z,72.31
2023-02-12T17:19:00.730Z,72.06
2023-02-12T17:21:31.740Z,72.14
2023-02-12T17:24:01.439Z,72.23
2023-02-12T17:26:29.851Z,71.70
2023-02-12T17:29:05.464Z,71.83
2023-02-12T17:31:34.121Z,72.08
2023-02-12T17:34:02.480Z,71.91
2023-02-12T17:36:30.804Z,71.89
2023-02-12T17:38:59.118Z,71.86
2023-02-12T17:41:28.830Z,71.76
2023-02-12T17:43:57.109Z,71.32
2023-02-12T17:46:27.567Z,71.36
2023-02-12T17:48:56.541Z,71.64
2023-02-12T17:51:25.465Z,71.74
2023-02-12T17:53:53.964Z,71.96
2023-02-12T17:56:25.566Z,71.69
2023-02-12T17:58:55.353Z,71.55
2023-02-12T18:01:25.301Z,71.90
2023-02-12T18:03:55.903Z,71.62
2023-02-12T18:06:26.598Z,71.26
2023-02-12T18:08:55.400Z,71.33
2023-02-12T18:11:23.692Z,71.55
2023-02-12T18:13:53.829Z,71.74
2023-02-12T18:16:24.752Z,71.29
2023-02-12T18:18:53.210Z,71.36
2023-02-12T18:21:21.677Z,71.49
2023-02-12T18:23:50.433Z,71.33
2023-02-12T18:26:19.957Z,71.42
2023-02-12T18:28:48.782Z,71.38
2023-02-12T18:31:19.411Z,71.37
2023-02-12T18:33:49.083Z,71.22
2023-02-12T18:36:18.902Z,71.26
2023-02-12T18:38:49.311Z,71.00
2023-02-12T18:41:19.775Z,71.00
2023-02-12T18:43:48.580Z,71.19
2023-02-12T18:46:19.953Z,71.04
2023-02-12T18:48:50.538Z,71.22
2023-02-12T18:51:22.382Z,71.04
2023-02-12T18:53:55.562Z,71.25
2023-02-12T18:56:24.190Z,70.60
2023-02-12T18:58:56.595Z,71.09
2023-02-12T19:01:25.972Z,70.81
2023-02-12T19:03:57.431Z,70.85
2023-02-12T19:06:26.001Z,71.23
2023-02-12T19:08:56.734Z,70.43
2023-02-12T19:11:25.521Z,71.51
2023-02-12T19:13:53.943Z,71.16
2023-02-12T19:16:24.499Z,71.00
2023-02-12T19:18:56.039Z,71.02
2023-02-12T19:21:26.450Z,70.95
2023-02-12T19:23:56.153Z,70.87
2023-02-12T19:26:25.221Z,70.66
2023-02-12T19:28:54.037Z,70.75
2023-02-12T19:31:24.667Z,70.76
2023-02-12T19:33:59.100Z,70.90
2023-02-12T19:36:29.097Z,70.99
2023-02-12T19:38:57.625Z,71.26
2023-02-12T19:41:27.695Z,70.76
2023-02-12T19:43:58.250Z,70.71
2023-02-12T19:46:28.322Z,70.41
2023-02-12T19:49:00.312Z,70.81
2023-02-12T19:51:30.575Z,70.79
2023-02-12T19:54:01.279Z,70.90
2023-02-12T19:56:29.916Z,70.47
2023-02-12T19:58:58.519Z,71.06
2023-02-12T20:01:27.294Z,70.71
2023-02-12T20:03:58.370Z,70.97
2023-02-12T20:06:28.978Z,70.85
2023-02-12T20:08:57.651Z,70.96
2023-02-12T20:11:28.818Z,71.18
2023-02-12T20:13:58.020Z,70.71
2023-02-12T20:16:31.249Z,71.06
2023-02-12T20:19:04.988Z,71.00
2023-02-12T20:21:33.421Z,71.22
2023-02-12T20:24:02.365Z,70.84
2023-02-12T20:26:32.592Z,71.04
2023-02-12T20:29:03.373Z,70.71
2023-02-12T20:31:36.040Z,71.03
2023-02-12T20:34:08.015Z,70.66
2023-02-12T20:36:38.130Z,71.16
2023-02-12T20:39:07.869Z,70.93
2023-02-12T20:41:37.208Z,70.78
2023-02-12T20:44:06.303Z,70.52
2023-02-12T20:46:39.280Z,70.75
2023-02-12T20:49:09.337Z,70.86
2023-02-12T20:51:38.273Z,70.66
2023-02-12T20:54:06.785Z,71.00
2023-02-12T20:56:37.118Z,70.76
2023-02-12T20:59:06.471Z,70.91
2023-02-12T21:01:36.976Z,70.68
2023-02-12T21:04:07.358Z,70.97
2023-02-12T21:06:40.118Z,70.71
2023-02-12T21:09:09.654Z,70.81
2023-02-12T21:11:39.787Z,70.40
2023-02-12T21:14:21.297Z,70.81
2023-02-12T21:16:50.668Z,70.55
2023-02-12T21:19:19.410Z,70.52
2023-02-12T21:21:49.075Z,70.93
2023-02-12T21:24:19.648Z,70.70
2023-02-12T21:26:48.168Z,70.61
2023-02-12T21:29:16.815Z,70.77
2023-02-12T21:31:46.986Z,71.06
2023-02-12T21:34:17.326Z,70.82
2023-02-12T21:36:46.932Z,70.76
2023-02-12T21:39:24.340Z,70.81
2023-02-12T21:41:54.436Z,70.58
2023-02-12T21:44:23.872Z,70.68
2023-02-12T21:46:52.676Z,70.55
2023-02-12T21:49:26.535Z,70.93
2023-02-12T21:51:56.835Z,70.64
2023-02-12T21:54:27.071Z,70.54
2023-02-12T21:56:55.706Z,70.63
2023-02-12T21:59:24.813Z,70.52
2023-02-12T22:01:55.314Z,70.19
2023-02-12T22:04:23.653Z,70.67
2023-02-12T22:06:52.830Z,70.55
2023-02-12T22:09:22.900Z,70.61
2023-02-12T22:11:53.154Z,70.56
2023-02-12T22:14:22.531Z,70.63
2023-02-12T22:16:51.023Z,70.49
2023-02-12T22:19:19.484Z,70.68
2023-02-12T22:21:51.336Z,70.45
2023-02-12T22:24:19.794Z,70.49
2023-02-12T22:26:48.121Z,70.66
2023-02-12T22:29:18.316Z,70.35
2023-02-12T22:31:47.903Z,70.35
2023-02-12T22:34:18.657Z,70.41
2023-02-12T22:36:48.023Z,70.38
2023-02-12T22:39:17.613Z,70.48
2023-02-12T22:41:46.293Z,70.54
2023-02-12T22:44:15.635Z,70.59
2023-02-12T22:46:46.060Z,70.55
2023-02-12T22:49:14.308Z,70.29
2023-02-12T22:51:42.850Z,70.52
2023-02-12T22:54:14.034Z,70.52
2023-02-12T22:56:42.352Z,70.58
2023-02-12T22:59:11.949Z,70.40
2023-02-12T23:01:40.436Z,70.48
2023-02-12T23:04:15.108Z,70.44
2023-02-12T23:06:43.856Z,70.29
2023-02-12T23:09:14.318Z,70.39
2023-02-12T23:11:42.697Z,70.23
2023-02-12T23:14:10.938Z,70.09
2023-02-12T23:16:39.933Z,70.28
2023-02-12T23:19:11.625Z,70.30
2023-02-12T23:21:40.576Z,70.24
2023-02-12T23:24:11.457Z,70.05
2023-02-12T23:26:39.808Z,70.17
2023-02-12T23:29:08.160Z,70.48
2023-02-12T23:31:36.497Z,70.23
2023-02-12T23:34:04.867Z,70.16
2023-02-12T23:36:34.431Z,70.11
2023-02-12T23:39:05.716Z,70.00
2023-02-12T23:41:33.996Z,70.26
2023-02-12T23:44:02.222Z,70.06
2023-02-12T23:46:30.526Z,70.13
2023-02-12T23:48:58.758Z,70.17
2023-02-12T23:51:27.111Z,70.45
2023-02-12T23:53:56.733Z,70.03
2023-02-12T23:56:25.211Z,70.10
2023-02-12T23:58:53.429Z,70.13
